Weatherford, Texas
Current Conditions -  °F | °C
As of 11:03 AM on Thursday 18 Dec 2014 (Local Time) from KMWL Reporting Station
Haze Haze  
Wind Chill: 47°   Ceiling: 300
Heat Index: 47°   Visibility: 1.5mi
Dew Point: 45°   Wind: 0mph
Humidity: 93%   Direction: NA
Pressure: 30.15"   Gusts: NA
Location:  32.76°N, 97.8°W
Report Text: KMWL 181703Z AUTO 00000KT 1 1/2SM BR OVC003 08/07 A3015 RMK AO2 T00830072
Loading
Personal Weather Stations






























Interactive Weather Map New forecast layout! Learn more

10-Day Weather Forecast

Advertisements
Track Severe Weather on mobile